Time;durP1;ratioP1;P1;durP2;ratioP2;P2;SDS_P1;SDS_P2;PMS_P1;PMS_P2;Temp;Humidity;BMP_temperature;BMP_pressure;BME280_temperature;BME280_humidity;BME280_pressure;Samples;Min_cycle;Max_cycle;Signal;HPM_P1;HPM_P2
2021/12/04 00:00:22;;;;;;;1.30;1.00;;;;;;;4.76;93.60;99109.91;5000635;28;20202;-55
2021/12/04 00:02:50;;;;;;;1.67;1.00;;;;;;;4.77;93.80;99109.00;4996387;28;20389;-51
2021/12/04 00:05:15;;;;;;;0.87;0.87;;;;;;;4.77;93.79;99108.16;4995587;28;20201;-54
2021/12/04 00:07:41;;;;;;;1.50;1.00;;;;;;;4.78;94.08;99107.31;4992273;28;20214;-54
2021/12/04 00:10:07;;;;;;;1.23;1.13;;;;;;;4.78;94.04;99104.75;4994549;28;20611;-55
2021/12/04 00:12:34;;;;;;;1.60;1.30;;;;;;;4.78;94.16;99100.47;4998933;28;20426;-54
2021/12/04 00:15:00;;;;;;;5.00;3.13;;;;;;;4.80;94.21;99105.59;4993292;28;20324;-54
2021/12/04 00:17:26;;;;;;;4.30;3.00;;;;;;;4.79;94.18;99098.75;4998381;28;20212;-55
2021/12/04 00:19:52;;;;;;;4.00;2.77;;;;;;;4.80;93.87;99100.47;4999406;28;20192;-54
2021/12/04 00:22:17;;;;;;;3.10;2.60;;;;;;;4.79;93.72;99103.88;5002733;28;20196;-55
2021/12/04 00:24:43;;;;;;;3.40;1.90;;;;;;;4.77;93.51;99096.19;5000473;28;21155;-54
2021/12/04 00:27:08;;;;;;;2.30;1.80;;;;;;;4.77;93.32;99101.31;4997613;28;20212;-55
2021/12/04 00:29:34;;;;;;;1.27;1.17;;;;;;;4.78;92.68;99089.38;4996642;28;20273;-54
2021/12/04 00:32:10;;;;;;;1.40;1.30;;;;;;;4.76;93.69;99081.69;5003085;28;20557;-54
2021/12/04 00:34:40;;;;;;;1.13;1.03;;;;;;;4.77;95.75;99062.88;5000563;28;20193;-54
2021/12/04 00:37:13;;;;;;;0.80;0.80;;;;;;;4.76;96.76;99061.19;4990953;28;20235;-54
2021/12/04 00:50:35;;;;;;;1.57;0.90;;;;;;;4.66;100.00;99026.19;4999317;28;20209;-53
2021/12/04 00:53:00;;;;;;;1.87;1.13;;;;;;;4.66;100.00;99036.44;5001836;28;20197;-52
2021/12/04 00:55:26;;;;;;;1.03;0.80;;;;;;;4.66;100.00;99034.75;5000813;28;20191;-54
2021/12/04 00:57:52;;;;;;;2.10;1.03;;;;;;;4.66;100.00;99027.06;5006287;28;20208;-51
2021/12/04 01:00:18;;;;;;;1.40;1.00;;;;;;;4.62;100.00;99020.25;4996549;28;20193;-53
2021/12/04 01:02:44;;;;;;;1.10;1.00;;;;;;;4.61;100.00;99010.84;5003911;28;20554;-53
2021/12/04 01:05:09;;;;;;;0.90;0.90;;;;;;;4.60;100.00;98993.78;4998903;28;20194;-54
2021/12/04 01:07:35;;;;;;;2.80;1.13;;;;;;;4.60;100.00;98995.50;5002997;28;20219;-53
2021/12/04 01:10:01;;;;;;;1.00;0.90;;;;;;;4.56;100.00;98990.38;4999584;28;20247;-54
2021/12/04 01:12:27;;;;;;;0.80;0.70;;;;;;;4.60;100.00;98982.69;5002025;28;20204;-53
2021/12/04 01:14:53;;;;;;;0.90;0.60;;;;;;;4.60;100.00;98980.97;4999606;28;20510;-53
2021/12/04 01:17:18;;;;;;;0.93;0.60;;;;;;;4.57;100.00;98979.28;5007064;28;20576;-53
2021/12/04 01:19:43;;;;;;;0.60;0.57;;;;;;;4.55;100.00;98981.00;5003061;28;20196;-52
2021/12/04 01:22:09;;;;;;;0.80;0.50;;;;;;;4.56;100.00;98969.03;5004296;28;20186;-53
2021/12/04 01:24:35;;;;;;;0.60;0.50;;;;;;;4.54;100.00;98960.47;4998755;28;20192;-53
2021/12/04 01:27:00;;;;;;;0.97;0.60;;;;;;;4.55;100.00;98973.31;5000027;28;20675;-53
2021/12/04 01:29:25;;;;;;;0.70;0.40;;;;;;;4.54;100.00;98974.16;5002937;28;20727;-52
2021/12/04 01:31:51;;;;;;;0.47;0.40;;;;;;;4.52;100.00;98970.75;5004423;28;20215;-53
2021/12/04 01:34:16;;;;;;;0.30;0.30;;;;;;;4.50;100.00;98961.38;5005222;28;20179;-53
2021/12/04 01:36:42;;;;;;;1.23;0.50;;;;;;;4.51;100.00;98955.41;5014358;28;20211;-53
2021/12/04 01:39:09;;;;;;;0.47;0.30;;;;;;;4.49;100.00;98952.84;5005012;28;20592;-53
2021/12/04 01:41:34;;;;;;;0.70;0.40;;;;;;;4.51;100.00;98946.00;5004451;28;20217;-53
2021/12/04 01:44:03;;;;;;;0.60;0.40;;;;;;;4.47;100.00;98939.19;4999509;28;20191;-53
2021/12/04 01:46:30;;;;;;;0.60;0.50;;;;;;;4.49;100.00;98939.19;4999445;28;20803;-54
2021/12/04 01:48:55;;;;;;;0.63;0.40;;;;;;;4.47;100.00;98934.06;4999826;28;20291;-53
2021/12/04 01:51:21;;;;;;;0.30;0.30;;;;;;;4.47;100.00;98922.97;5006252;28;20279;-53
2021/12/04 01:53:47;;;;;;;0.30;0.30;;;;;;;4.47;100.00;98917.84;5005591;28;20252;-52
2021/12/04 01:56:13;;;;;;;0.60;0.30;;;;;;;4.47;100.00;98899.91;5004189;28;20215;-53
2021/12/04 01:58:41;;;;;;;1.37;0.57;;;;;;;4.45;100.00;98889.69;5004088;28;20553;-53
2021/12/04 02:01:07;;;;;;;0.40;0.30;;;;;;;4.48;100.00;98888.81;5008354;28;20255;-52
2021/12/04 02:03:33;;;;;;;0.90;0.30;;;;;;;4.47;100.00;98882.81;5001766;28;20200;-54
2021/12/04 02:05:58;;;;;;;0.97;0.20;;;;;;;4.49;100.00;98887.94;5006170;28;20279;-54
2021/12/04 02:08:24;;;;;;;0.33;0.30;;;;;;;4.52;100.00;98887.94;5018203;27;21782;-55
2021/12/04 02:10:54;;;;;;;0.90;0.20;;;;;;;4.53;100.00;98887.91;5007317;28;20193;-52
2021/12/04 02:13:20;;;;;;;0.30;0.30;;;;;;;4.55;100.00;98886.19;5002434;28;20508;-53
2021/12/04 02:15:47;;;;;;;0.47;0.20;;;;;;;4.57;100.00;98874.22;5003359;28;20279;-53
2021/12/04 02:18:13;;;;;;;0.20;0.20;;;;;;;4.61;100.00;98879.34;5003330;28;20691;-54
2021/12/04 02:20:39;;;;;;;0.33;0.30;;;;;;;4.62;100.00;98879.31;5003789;28;20640;-54
2021/12/04 02:23:07;;;;;;;0.20;0.20;;;;;;;4.66;100.00;98880.13;4997924;28;20197;-54
2021/12/04 02:25:34;;;;;;;0.20;0.20;;;;;;;4.67;100.00;98875.00;5001020;28;20193;-54
2021/12/04 02:28:00;;;;;;;0.20;0.20;;;;;;;4.69;100.00;98872.44;5000029;28;20211;-54
2021/12/04 02:30:29;;;;;;;0.87;0.40;;;;;;;4.71;100.00;98866.41;4999674;28;20192;-54
2021/12/04 02:32:56;;;;;;;0.30;0.30;;;;;;;4.74;100.00;98868.13;5002344;28;20192;-54
2021/12/04 02:35:22;;;;;;;0.10;0.10;;;;;;;4.75;100.00;98863.84;4997317;28;20190;-54
2021/12/04 02:37:48;;;;;;;0.60;0.40;;;;;;;4.75;100.00;98857.00;4998575;28;20213;-54
2021/12/04 02:40:17;;;;;;;0.30;0.30;;;;;;;4.76;100.00;98851.03;5003488;28;20593;-54
2021/12/04 02:42:44;;;;;;;0.57;0.20;;;;;;;4.77;100.00;98857.81;5004049;28;20210;-52
2021/12/04 02:45:11;;;;;;;0.30;0.30;;;;;;;4.77;100.00;98836.47;5006034;28;20689;-53
2021/12/04 02:47:36;;;;;;;0.77;0.33;;;;;;;4.78;100.00;98841.56;4993769;28;20627;-53
2021/12/04 02:50:05;;;;;;;0.77;0.30;;;;;;;4.78;100.00;98827.94;5000157;28;20330;-54
2021/12/04 02:52:31;;;;;;;0.40;0.40;;;;;;;4.78;100.00;98823.63;4998696;28;20217;-53
2021/12/04 02:54:57;;;;;;;0.30;0.30;;;;;;;4.80;100.00;98815.94;4999640;28;20697;-54
2021/12/04 02:57:23;;;;;;;0.50;0.40;;;;;;;4.81;100.00;98818.50;5000691;28;20218;-55
2021/12/04 02:59:49;;;;;;;0.47;0.30;;;;;;;4.84;100.00;98804.81;5000764;28;20579;-55
2021/12/04 03:02:17;;;;;;;0.30;0.30;;;;;;;4.85;100.00;98797.09;5006227;28;20203;-53
2021/12/04 03:04:45;;;;;;;0.30;0.30;;;;;;;4.86;100.00;98798.81;4999515;28;20197;-53
2021/12/04 03:07:10;;;;;;;0.37;0.37;;;;;;;4.86;100.00;98792.81;5000072;28;20209;-53
2021/12/04 03:09:36;;;;;;;0.90;0.50;;;;;;;4.81;100.00;98792.03;4991154;28;21115;-54
2021/12/04 03:12:05;;;;;;;1.30;0.60;;;;;;;4.77;100.00;98785.22;5004852;28;20204;-54
2021/12/04 03:14:31;;;;;;;0.53;0.50;;;;;;;4.72;100.00;98772.47;4998701;28;20914;-53
2021/12/04 03:16:57;;;;;;;1.43;0.50;;;;;;;4.68;100.00;98770.78;4999884;28;20208;-54
2021/12/04 03:19:23;;;;;;;1.10;0.70;;;;;;;4.64;100.00;98769.09;4996494;28;20626;-53
2021/12/04 03:21:48;;;;;;;0.70;0.60;;;;;;;4.59;100.00;98753.78;5003789;28;20204;-53
2021/12/04 03:24:16;;;;;;;1.33;1.10;;;;;;;4.54;100.00;98760.66;4993298;28;20196;-53
2021/12/04 03:26:42;;;;;;;2.13;1.40;;;;;;;4.50;100.00;98748.75;5005542;28;20216;-52
2021/12/04 03:29:12;;;;;;;2.60;1.80;;;;;;;4.40;100.00;98741.13;5002422;28;20223;-52
2021/12/04 03:42:48;;;;;;;2.30;2.10;;;;;;;4.08;100.00;98723.47;4971724;28;20191;-53
2021/12/04 03:45:13;;;;;;;2.50;2.13;;;;;;;4.06;100.00;98717.50;4998661;28;20658;-54
2021/12/04 03:47:43;;;;;;;3.00;2.50;;;;;;;4.02;100.00;98713.28;4997795;28;20214;-52
2021/12/04 03:50:09;;;;;;;2.67;2.47;;;;;;;3.99;100.00;98708.19;4999929;28;20216;-53
2021/12/04 03:52:36;;;;;;;2.50;2.30;;;;;;;3.95;100.00;98697.97;5002544;28;20197;-53
2021/12/04 03:55:05;;;;;;;2.67;2.47;;;;;;;3.96;100.00;98694.56;4997033;28;20207;-52
2021/12/04 03:57:30;;;;;;;3.53;3.20;;;;;;;3.95;100.00;98692.88;5003150;28;20199;-54
2021/12/04 03:59:56;;;;;;;4.17;3.60;;;;;;;3.94;100.00;98692.84;4996815;28;20646;-52
2021/12/04 04:02:21;;;;;;;4.63;4.23;;;;;;;3.86;100.00;98684.41;4999859;28;20224;-55
2021/12/04 04:04:47;;;;;;;6.40;4.90;;;;;;;3.82;100.00;98681.03;5003993;28;20272;-53
2021/12/04 04:07:12;;;;;;;5.70;5.20;;;;;;;3.77;100.00;98677.63;5000066;28;20318;-54
2021/12/04 04:09:38;;;;;;;5.93;5.20;;;;;;;3.75;100.00;98680.22;4999108;28;20615;-54
2021/12/04 04:12:04;;;;;;;5.60;5.07;;;;;;;3.76;100.00;98673.38;5002348;28;20644;-55
2021/12/04 04:14:29;;;;;;;4.90;4.50;;;;;;;3.80;100.00;98662.28;4995883;28;20196;-54
2021/12/04 04:16:56;;;;;;;6.50;5.30;;;;;;;3.81;100.00;98664.81;4996616;28;20217;-55
2021/12/04 04:19:23;;;;;;;5.60;5.13;;;;;;;3.79;100.00;98656.28;5001674;28;21541;-54
2021/12/04 04:21:53;;;;;;;6.20;5.57;;;;;;;3.79;100.00;98660.56;4997139;28;20245;-55
2021/12/04 04:24:18;;;;;;;6.30;5.70;;;;;;;3.78;100.00;98653.75;5000134;28;20257;-54
2021/12/04 04:26:45;;;;;;;6.50;5.90;;;;;;;3.76;100.00;98658.88;5005801;28;20250;-54
2021/12/04 04:29:12;;;;;;;7.80;6.63;;;;;;;3.73;100.00;98658.91;5004711;28;20229;-53
2021/12/04 04:31:49;;;;;;;8.80;7.90;;;;;;;3.70;100.00;98650.41;5001159;28;20581;-54
2021/12/04 04:34:23;;;;;;;10.63;8.10;;;;;;;3.68;100.00;98647.84;5001827;28;20257;-54
2021/12/04 05:01:23;;;;;;;14.07;12.57;;;;;;;3.55;100.00;98613.84;4997022;28;20823;-54
2021/12/04 05:14:40;;;;;;;16.33;13.10;;;;;;;3.59;100.00;98595.03;4991878;28;20192;-53
2021/12/04 05:17:28;;;;;;;16.13;13.03;;;;;;;3.63;100.00;98604.41;5002700;28;20235;-54
2021/12/04 05:19:55;;;;;;;17.17;13.40;;;;;;;3.65;100.00;98600.13;4997599;28;20197;-54
2021/12/04 05:22:21;;;;;;;16.00;13.17;;;;;;;3.65;100.00;98592.44;4994756;28;20650;-55
2021/12/04 05:24:47;;;;;;;20.57;15.37;;;;;;;3.63;100.00;98593.34;4999032;28;20176;-55
2021/12/04 05:27:13;;;;;;;18.23;14.80;;;;;;;3.63;100.00;98589.06;4993061;28;20208;-55
2021/12/04 05:29:39;;;;;;;21.17;17.17;;;;;;;3.62;100.00;98591.63;4991753;28;20249;-54
2021/12/04 05:32:06;;;;;;;22.63;17.63;;;;;;;3.63;100.00;98593.34;4996534;28;20204;-55
2021/12/04 05:34:34;;;;;;;26.07;18.93;;;;;;;3.57;100.00;98583.97;4996505;28;20192;-54
2021/12/04 05:37:00;;;;;;;22.37;17.63;;;;;;;3.54;100.00;98584.03;5003778;28;20555;-54
2021/12/04 05:39:26;;;;;;;26.70;20.63;;;;;;;3.50;100.00;98575.50;5005997;28;20191;-54
2021/12/04 05:41:51;;;;;;;27.13;19.73;;;;;;;3.49;100.00;98571.25;5010979;28;20188;-54
2021/12/04 05:44:20;;;;;;;28.70;20.17;;;;;;;3.48;100.00;98581.50;5001674;28;20188;-53
2021/12/04 05:47:00;;;;;;;31.97;21.97;;;;;;;3.47;100.00;98577.25;5003284;28;20882;-54
2021/12/04 05:49:35;;;;;;;29.47;19.67;;;;;;;3.48;100.00;98577.22;5003018;28;20240;-53
2021/12/04 05:56:54;;;;;;;33.83;23.13;;;;;;;3.42;100.00;98579.84;4996433;28;20262;-55
2021/12/04 05:59:20;;;;;;;39.13;24.10;;;;;;;3.39;100.00;98579.03;4991011;28;20661;-53
2021/12/04 06:01:45;;;;;;;39.17;26.13;;;;;;;3.31;100.00;98585.03;4996630;28;20631;-53
2021/12/04 06:04:11;;;;;;;38.43;26.30;;;;;;;3.24;100.00;98575.72;4995314;28;20195;-52
2021/12/04 06:06:37;;;;;;;42.77;26.27;;;;;;;3.22;100.00;98581.69;5004122;28;20204;-53
2021/12/04 06:09:04;;;;;;;43.80;26.07;;;;;;;3.22;100.00;98579.13;5008336;28;20218;-52
2021/12/04 06:11:31;;;;;;;44.20;26.70;;;;;;;3.25;100.00;98568.88;5009868;28;20270;-53
2021/12/04 06:13:57;;;;;;;38.87;24.40;;;;;;;3.24;100.00;98562.94;5004342;28;20192;-53
2021/12/04 06:16:22;;;;;;;39.77;24.77;;;;;;;3.26;100.00;98568.03;5003718;28;20212;-53
2021/12/04 06:18:52;;;;;;;40.93;23.67;;;;;;;3.33;100.00;98564.53;4996756;28;20233;-52
2021/12/04 06:24:04;;;;;;;39.70;23.70;;;;;;;3.40;100.00;98571.31;5006911;28;20564;-53
2021/12/04 06:26:31;;;;;;;44.73;26.60;;;;;;;3.35;100.00;98562.84;5009989;28;20207;-54
2021/12/04 06:28:56;;;;;;;50.70;26.57;;;;;;;3.31;100.00;98559.47;5010250;28;20303;-53
2021/12/04 06:31:22;;;;;;;44.57;24.77;;;;;;;3.31;100.00;98561.19;4994158;28;20197;-53
2021/12/04 06:33:47;;;;;;;34.73;21.43;;;;;;;3.33;100.00;98556.88;5000215;28;20269;-52
2021/12/04 06:36:13;;;;;;;34.20;21.27;;;;;;;3.35;100.00;98550.91;4990519;28;20203;-53
2021/12/04 06:38:38;;;;;;;45.80;25.83;;;;;;;3.40;100.00;98555.16;4999484;28;20185;-53
2021/12/04 06:41:05;;;;;;;43.67;24.43;;;;;;;3.38;100.00;98550.03;5004314;28;20570;-53
2021/12/04 06:43:31;;;;;;;48.03;25.57;;;;;;;3.38;100.00;98546.63;5009587;28;20184;-53
2021/12/04 06:46:01;;;;;;;51.27;25.50;;;;;;;3.38;100.00;98546.63;5008638;28;20184;-52
2021/12/04 06:49:33;;;;;;;46.40;25.00;;;;;;;3.39;100.00;98548.34;4986705;28;20676;-53
2021/12/04 06:51:30;;;;;;;39.57;22.33;;;;;;;3.39;100.00;98549.16;4995531;28;20205;-53
2021/12/04 06:54:00;;;;;;;44.50;23.20;;;;;;;3.40;100.00;98552.59;5018488;28;20648;-53
2021/12/04 06:56:33;;;;;;;39.97;22.03;;;;;;;3.41;100.00;98549.16;5006376;28;20566;-54
2021/12/04 06:59:02;;;;;;;48.43;23.70;;;;;;;3.42;100.00;98544.03;5006100;28;20553;-53
2021/12/04 07:01:27;;;;;;;49.50;25.63;;;;;;;3.40;100.00;98544.91;5005086;28;20184;-53
2021/12/04 07:03:53;;;;;;;49.73;25.10;;;;;;;3.38;100.00;98547.47;5001967;28;20357;-53
2021/12/04 07:06:18;;;;;;;59.50;26.70;;;;;;;3.31;100.00;98556.06;4998142;28;20239;-52
2021/12/04 07:08:43;;;;;;;48.43;25.03;;;;;;;3.26;100.00;98550.13;4995010;28;20209;-54
2021/12/04 07:11:09;;;;;;;65.70;27.50;;;;;;;3.22;100.00;98541.63;4991866;28;20232;-53
2021/12/04 07:13:34;;;;;;;64.87;27.80;;;;;;;3.18;100.00;98553.56;5006122;28;20673;-50
2021/12/04 07:16:05;;;;;;;59.13;26.03;;;;;;;3.18;100.00;98540.78;5016517;28;20298;-52
2021/12/04 07:18:32;;;;;;;50.10;25.17;;;;;;;3.21;100.00;98547.59;5002324;28;20192;-54
2021/12/04 07:20:58;;;;;;;55.80;25.80;;;;;;;3.25;100.00;98553.53;4994050;28;20189;-52
2021/12/04 07:23:25;;;;;;;56.83;25.97;;;;;;;3.29;100.00;98545.00;4990875;28;20619;-53
2021/12/04 07:25:50;;;;;;;59.87;25.93;;;;;;;3.33;100.00;98547.50;5044528;28;20605;-51
2021/12/04 07:28:16;;;;;;;62.33;27.10;;;;;;;3.36;100.00;98544.06;4996373;28;20200;-53
2021/12/04 07:30:41;;;;;;;59.33;26.70;;;;;;;3.38;100.00;98537.25;4992488;28;20180;-52
2021/12/04 07:33:07;;;;;;;55.13;26.07;;;;;;;3.40;100.00;98537.25;4998439;28;20188;-53
2021/12/04 07:35:33;;;;;;;59.53;25.97;;;;;;;3.44;100.00;98538.91;5005457;28;20259;-52
2021/12/04 07:38:00;;;;;;;49.40;23.87;;;;;;;3.49;100.00;98539.72;4999399;28;20743;-52
2021/12/04 07:40:26;;;;;;;76.07;29.77;;;;;;;3.55;100.00;98533.69;5004994;28;20196;-52
2021/12/04 07:42:51;;;;;;;57.63;25.07;;;;;;;3.55;100.00;98534.56;4998096;28;20218;-53
2021/12/04 07:45:17;;;;;;;67.10;26.63;;;;;;;3.59;100.00;98533.66;5002053;28;20184;-53
2021/12/04 07:47:42;;;;;;;53.87;25.10;;;;;;;3.61;100.00;98534.50;5002704;28;20321;-52
2021/12/04 07:50:09;;;;;;;54.17;25.03;;;;;;;3.62;100.00;98536.19;4995722;28;20823;-53
2021/12/04 07:52:37;;;;;;;56.43;25.37;;;;;;;3.69;100.00;98525.91;4997388;28;20193;-53
2021/12/04 07:55:03;;;;;;;57.77;24.73;;;;;;;3.72;100.00;98528.41;4993737;28;20278;-53
2021/12/04 07:57:29;;;;;;;43.90;21.57;;;;;;;3.73;100.00;98512.22;4996523;28;20204;-52
2021/12/04 07:59:54;;;;;;;51.10;23.67;;;;;;;3.78;100.00;98518.97;5001002;28;20594;-53
2021/12/04 08:02:20;;;;;;;58.90;24.40;;;;;;;3.83;100.00;98518.94;4993547;28;20200;-53
2021/12/04 08:04:46;;;;;;;55.30;25.17;;;;;;;3.85;100.00;98521.47;4994814;28;20305;-53
2021/12/04 08:07:11;;;;;;;60.73;25.47;;;;;;;3.82;100.00;98522.38;4994060;28;20670;-53
2021/12/04 08:09:37;;;;;;;53.33;22.80;;;;;;;3.81;100.00;98518.94;4991798;28;20219;-54
2021/12/04 08:12:03;;;;;;;57.87;25.53;;;;;;;3.83;100.00;98525.75;4997894;28;20221;-52
2021/12/04 08:14:29;;;;;;;48.87;24.13;;;;;;;3.85;100.00;98517.22;4994021;28;20666;-53
2021/12/04 08:16:55;;;;;;;55.00;24.90;;;;;;;3.84;100.00;98515.53;4994039;28;20292;-53
2021/12/04 08:19:20;;;;;;;56.60;25.10;;;;;;;3.86;100.00;98513.78;4996269;28;20829;-53
2021/12/04 08:21:46;;;;;;;56.90;24.93;;;;;;;3.85;100.00;98507.00;5001059;28;20264;-54
2021/12/04 08:24:11;;;;;;;52.43;24.50;;;;;;;3.87;100.00;98507.78;4993402;28;20196;-53
2021/12/04 08:26:38;;;;;;;56.53;25.60;;;;;;;3.92;100.00;98512.88;4996340;28;20672;-54
2021/12/04 08:29:05;;;;;;;62.23;26.27;;;;;;;3.96;100.00;98504.28;4998338;28;20574;-52
2021/12/04 08:31:31;;;;;;;56.93;24.63;;;;;;;4.01;100.00;98499.97;5001272;28;20273;-53
2021/12/04 08:33:57;;;;;;;56.17;24.50;;;;;;;4.07;100.00;98504.19;4997777;28;20563;-53
2021/12/04 08:36:23;;;;;;;52.30;23.03;;;;;;;4.11;100.00;98501.56;4999038;28;20216;-54
2021/12/04 08:38:49;;;;;;;45.27;21.57;;;;;;;4.18;100.00;98496.38;4996182;28;20190;-54
2021/12/04 08:41:16;;;;;;;52.67;23.07;;;;;;;4.25;100.00;98503.09;4996975;28;20203;-55
2021/12/04 08:43:42;;;;;;;42.77;20.37;;;;;;;4.30;100.00;98503.91;4996203;28;20203;-54
2021/12/04 08:46:07;;;;;;;43.90;21.53;;;;;;;4.33;100.00;98487.66;5002346;28;20312;-53
2021/12/04 08:48:33;;;;;;;46.10;22.00;;;;;;;4.36;100.00;98492.75;4995027;28;20209;-55
2021/12/04 08:51:00;;;;;;;38.13;20.07;;;;;;;4.39;100.00;98490.16;4993434;28;20268;-52
2021/12/04 08:53:27;;;;;;;44.60;22.23;;;;;;;4.42;100.00;98490.13;4996589;28;20237;-54
2021/12/04 08:55:53;;;;;;;51.77;27.27;;;;;;;4.44;100.00;98490.94;4998360;28;20283;-53
2021/12/04 08:58:18;;;;;;;48.43;27.03;;;;;;;4.44;100.00;98493.50;4993586;28;20202;-54
2021/12/04 09:00:55;;;;;;;53.37;29.33;;;;;;;4.48;100.00;98489.19;4993254;28;20208;-54
2021/12/04 09:03:29;;;;;;;58.03;27.67;;;;;;;4.52;100.00;98483.16;4989566;28;20284;-54
2021/12/04 09:05:55;;;;;;;44.57;23.93;;;;;;;4.55;100.00;98485.66;4996544;28;20378;-53
2021/12/04 09:08:24;;;;;;;47.67;24.83;;;;;;;4.64;100.00;98488.09;4999755;28;20608;-54
2021/12/04 09:10:52;;;;;;;44.40;22.10;;;;;;;4.69;100.00;98481.19;5012737;28;20248;-52
2021/12/04 09:13:18;;;;;;;45.87;22.63;;;;;;;4.77;100.00;98482.81;5002967;28;20187;-54
2021/12/04 09:15:44;;;;;;;42.23;21.23;;;;;;;4.85;100.00;98476.69;5030371;28;20608;-53
2021/12/04 09:18:10;;;;;;;49.13;22.23;;;;;;;4.91;100.00;98477.50;5019919;28;20201;-53
2021/12/04 09:20:36;;;;;;;39.30;18.90;;;;;;;4.94;100.00;98474.84;5007866;28;20195;-53
2021/12/04 09:23:06;;;;;;;38.97;18.70;;;;;;;4.95;100.00;98471.41;4992839;28;20557;-55
2021/12/04 09:25:33;;;;;;;41.63;18.43;;;;;;;4.95;100.00;98454.34;4991287;28;20189;-54
2021/12/04 09:28:25;;;;;;;34.07;17.20;;;;;;;4.98;100.00;98462.00;5001197;28;20287;-53
2021/12/04 10:01:42;;;;;;;26.13;12.30;;;;;;;5.70;100.00;98423.09;5000916;28;20801;-54
2021/12/04 10:12:29;;;;;;;27.83;12.40;;;;;;;5.64;100.00;98415.53;4999045;28;20261;-54
2021/12/04 10:23:56;;;;;;;22.80;12.63;;;;;;;5.78;100.00;98395.59;4996506;28;20240;-55
2021/12/04 10:32:26;;;;;;;19.70;10.47;;;;;;;6.08;100.00;98375.31;4997321;28;20279;-54
2021/12/04 10:34:52;;;;;;;20.20;9.97;;;;;;;6.25;100.00;98368.97;5001572;27;20193;-55
2021/12/04 10:37:27;;;;;;;17.93;9.53;;;;;;;6.37;100.00;98347.28;4996273;28;20212;-51
2021/12/04 10:39:59;;;;;;;15.27;8.80;;;;;;;6.54;100.00;98341.75;5000498;28;20309;-54
2021/12/04 10:42:29;;;;;;;13.67;7.67;;;;;;;6.72;100.00;98348.16;5001108;28;20732;-54
2021/12/04 10:44:56;;;;;;;14.50;8.00;;;;;;;6.88;100.00;98345.22;5000395;28;20197;-55
2021/12/04 10:47:25;;;;;;;12.80;7.67;;;;;;;7.00;100.00;98332.03;5011812;28;20258;-53
2021/12/04 10:55:19;;;;;;;4.07;3.30;;;;;;;7.46;100.00;98317.09;4998146;28;20662;-54
2021/12/04 11:02:52;;;;;;;1.90;1.70;;;;;;;8.16;100.00;98290.16;4994688;28;20609;-52
2021/12/04 11:23:13;;;;;;;1.60;1.40;;;;;;;8.75;100.00;98283.13;5005062;28;20543;-52
2021/12/04 11:46:23;;;;;;;3.73;1.10;;;;;;;8.94;100.00;98218.84;5024867;28;20196;-54
2021/12/04 11:48:49;;;;;;;2.53;1.30;;;;;;;9.04;100.00;98221.09;5015389;28;20203;-53
2021/12/04 11:51:22;;;;;;;1.63;1.10;;;;;;;9.08;100.00;98208.03;5082724;28;20180;-53
2021/12/04 11:53:49;;;;;;;2.20;1.33;;;;;;;9.15;100.00;98204.31;5019176;27;20190;-53
2021/12/04 11:56:20;;;;;;;1.23;1.00;;;;;;;9.20;100.00;98213.63;5020756;28;20765;-53
2021/12/04 11:58:48;;;;;;;1.50;1.00;;;;;;;9.15;100.00;98209.47;4998199;28;20181;-53
2021/12/04 12:01:42;;;;;;;1.90;0.90;;;;;;;9.19;100.00;98207.66;4994377;28;20522;-54
2021/12/04 12:04:11;;;;;;;1.10;0.93;;;;;;;9.26;100.00;98198.75;5009681;28;20226;-52
2021/12/04 12:06:43;;;;;;;1.57;1.03;;;;;;;9.27;100.00;98192.69;5009460;28;20212;-54
2021/12/04 12:09:12;;;;;;;1.83;1.00;;;;;;;9.24;100.00;98189.41;5006422;28;20610;-52
2021/12/04 12:11:50;;;;;;;1.30;0.93;;;;;;;9.27;100.00;98197.88;4993694;28;20586;-53
2021/12/04 12:14:16;;;;;;;1.93;1.30;;;;;;;9.25;100.00;98191.09;4996571;28;20653;-53
2021/12/04 12:16:48;;;;;;;1.97;1.10;;;;;;;9.26;100.00;98187.59;4995318;28;20243;-53
2021/12/04 12:19:26;;;;;;;1.10;0.90;;;;;;;9.24;100.00;98187.66;5005488;28;20264;-52
2021/12/04 12:22:01;;;;;;;3.23;1.20;;;;;;;9.17;100.00;98186.22;4997142;28;20186;-52
2021/12/04 12:27:47;;;;;;;1.27;1.00;;;;;;;9.17;100.00;98175.88;4998472;28;20230;-53
2021/12/04 12:36:08;;;;;;;1.53;1.20;;;;;;;9.22;100.00;98163.66;4999511;28;20348;-53
2021/12/04 12:38:52;;;;;;;1.87;0.90;;;;;;;9.23;100.00;98167.06;4997724;28;20483;-53
2021/12/04 12:41:41;;;;;;;1.63;1.00;;;;;;;9.15;100.00;98164.78;5004361;28;20236;-53
2021/12/04 12:44:28;;;;;;;1.30;0.97;;;;;;;9.07;100.00;98162.47;5006723;28;20199;-53
2021/12/04 12:46:55;;;;;;;1.17;0.93;;;;;;;9.05;100.00;98178.94;5012183;27;20211;-53
2021/12/04 12:49:25;;;;;;;1.30;1.00;;;;;;;9.00;100.00;98164.44;4991530;28;20628;-53
2021/12/04 12:51:53;;;;;;;2.33;0.90;;;;;;;8.94;100.00;98162.09;5000965;28;20664;-55
2021/12/04 12:54:37;;;;;;;1.67;1.00;;;;;;;8.94;100.00;98162.09;4998170;28;20674;-53
2021/12/04 12:57:10;;;;;;;1.00;0.80;;;;;;;8.89;100.00;98165.72;4996746;28;20208;-53
2021/12/04 13:14:49;;;;;;;1.73;1.40;;;;;;;8.67;100.00;98153.63;5008535;28;20226;-53
2021/12/04 13:17:21;;;;;;;3.80;1.40;;;;;;;8.66;100.00;98167.41;4998211;28;20223;-53
2021/12/04 13:19:50;;;;;;;2.17;1.20;;;;;;;8.68;100.00;98173.34;5006974;28;20187;-52
2021/12/04 13:22:25;;;;;;;1.50;1.40;;;;;;;8.69;100.00;98180.19;5003106;28;20193;-53
2021/12/04 13:24:53;;;;;;;1.53;1.20;;;;;;;8.72;100.00;98189.56;4999710;28;20675;-53
2021/12/04 13:29:53;;;;;;;2.07;1.40;;;;;;;8.76;100.00;98193.72;4998842;28;20207;-53
2021/12/04 13:32:29;;;;;;;1.73;1.20;;;;;;;8.78;100.00;98185.03;5001537;28;20281;-53
2021/12/04 13:34:54;;;;;;;2.03;1.40;;;;;;;8.76;100.00;98173.91;5017357;28;20191;-53
2021/12/04 13:37:25;;;;;;;1.40;1.20;;;;;;;8.79;100.00;98184.13;5027231;28;20212;-53
2021/12/04 13:39:56;;;;;;;1.43;1.20;;;;;;;8.79;100.00;98184.13;5008815;27;20241;-52
2021/12/04 13:42:22;;;;;;;1.30;1.20;;;;;;;8.79;100.00;98178.97;5012587;28;20268;-52
2021/12/04 13:44:47;;;;;;;1.70;1.50;;;;;;;8.78;100.00;98172.13;5031539;28;20195;-53
2021/12/04 13:47:13;;;;;;;1.20;1.10;;;;;;;8.81;100.00;98184.91;5015018;28;20681;-52
2021/12/04 13:49:53;;;;;;;1.10;1.00;;;;;;;8.80;100.00;98185.81;5009845;28;20220;-53
2021/12/04 13:52:19;;;;;;;1.37;1.20;;;;;;;8.81;100.00;98181.47;5002664;28;20215;-52
2021/12/04 13:54:50;;;;;;;1.67;1.10;;;;;;;8.80;100.00;98190.97;5013878;28;20222;-53
2021/12/04 13:57:16;;;;;;;1.40;1.20;;;;;;;8.80;100.00;98193.53;4996786;28;20238;-54
2021/12/04 13:59:42;;;;;;;3.00;1.30;;;;;;;8.79;100.00;98202.19;5007338;28;20574;-55
2021/12/04 14:02:20;;;;;;;2.10;1.30;;;;;;;8.79;100.00;98191.00;5000338;28;20207;-54
2021/12/04 14:04:55;;;;;;;2.67;1.67;;;;;;;8.81;100.00;98199.53;5014345;28;20190;-55
2021/12/04 14:07:20;;;;;;;4.80;1.60;;;;;;;8.81;100.00;98209.84;5008942;28;20215;-53
2021/12/04 14:09:45;;;;;;;2.23;1.67;;;;;;;8.79;100.00;98220.22;5016018;28;20208;-54
2021/12/04 14:12:11;;;;;;;2.07;1.63;;;;;;;8.80;100.00;98218.47;5012883;28;20296;-54
2021/12/04 14:14:36;;;;;;;1.83;1.73;;;;;;;8.79;100.00;98224.53;5020156;28;20321;-53
2021/12/04 14:17:12;;;;;;;2.50;1.60;;;;;;;8.77;100.00;98219.44;5000481;28;20251;-54
2021/12/04 14:19:38;;;;;;;4.03;2.10;;;;;;;8.76;100.00;98233.22;5001067;28;20192;-55
2021/12/04 14:22:21;;;;;;;2.10;1.60;;;;;;;8.75;100.00;98231.53;5011808;28;20217;-53
2021/12/04 14:24:56;;;;;;;2.97;1.40;;;;;;;8.75;100.00;98226.38;5000731;28;20184;-53
2021/12/04 14:27:25;;;;;;;1.93;1.80;;;;;;;8.72;100.00;98218.75;4996662;28;20244;-54
2021/12/04 14:29:56;;;;;;;2.47;1.87;;;;;;;8.75;100.00;98215.25;4997851;28;20714;-54
2021/12/04 14:32:28;;;;;;;3.20;1.80;;;;;;;8.73;100.00;98204.97;4993843;28;20193;-54
2021/12/04 14:35:00;;;;;;;1.83;1.43;;;;;;;8.73;100.00;98201.56;4997239;28;20733;-54
2021/12/04 14:37:26;;;;;;;2.90;2.40;;;;;;;8.70;100.00;98210.22;5001139;28;20219;-55
2021/12/04 14:39:52;;;;;;;3.60;2.10;;;;;;;8.74;100.00;98214.38;5014962;28;20229;-55
2021/12/04 14:42:22;;;;;;;2.87;2.03;;;;;;;8.76;100.00;98225.50;5033521;28;20263;-54
2021/12/04 14:44:54;;;;;;;2.60;2.40;;;;;;;8.74;100.00;98218.72;5018970;28;20635;-55